Fort Lauderdale Executive Airport
KFXE : now visible

Airfield :











YOU CAN JOIN US ON...

 
LOGIN :

Register | Disclaimer

   EN    FR    IT 

 









Legend :    VFR   Marginal VFR   IFR   Intensive IFR   Very Intensive IFR
Visi :
Ceiling :
>= 8 km
>= 3000ft
5 to 8 km
1000 to 3000 ft
1500m to 5 km
500 to 1000 ft
800 to 1500m
200 to 500 ft
< 800m
< 200 ft
Symbols :   Thunderstorms  Fog  Heavy snow  Heavy precipitations  Wind > 20 kt







- Airport Elevation : 13 ft


KFXE - Fort Lauderdale Executive

CURRENT METAR :
  • 201653Z 06019G31KT 10SM FEW024 SCT028 SCT034 29/22 A3002 RMK AO2 PK WND 07033/1615 SLP169 T02890222

EXPIRED METARs :
  • 201603Z 08020G31KT 10SM SCT024 SCT034 29/23 A3003 RMK AO2 PK WND 08031/1557 T02890228
  • 201553Z 06019G30KT 10SM SCT022 BKN028 BKN034 28/23 A3003 RMK AO2 PK WND 06030/1546 RAE02B25E35 SLP172 P0000 T02830228
  • 201453Z 08019G25KT 10SM -RA SCT022 SCT031 SCT060 28/23 A3002 RMK AO2 PK WND 07027/1439 RAE32B48 SLP169 P0004 60005 T02830228 50016
  • 201427Z 07015G20KT 10SM -RA SCT022 SCT031 SCT060 26/23 A3002 RMK AO2 P0004 T02610233

TAF KFXE
Valid from the 20 at 15:00 until the 21 at 12:00 UTC


201508Z 2015/2112 07015G25KT P6SM VCSH SCT030 BKN050
FM210000 08015G25KT P6SM VCSH SCT025 BKN050
No reported NOTAMs for that airfield.



MET'MAP, your aeronautical weather chart ! - Copyright ORBIFLY December 2007 - Disclaimer

ORBIFLY MET'MAP TEAM :

Programming & Development : Alexandra Zaïnal
Concept & Development : Baudouin d'Aumeries
Co-Development & Prog : Marc-Olivier Méhu
Technical & hardware support : Manuel Goepfert

Contact : metmap@orbifly.com




SOURCES & CREDITS :

   NOAA       Earth
Advisory